sensor_id;sensor_type;location;lat;lon;timestamp;pressure;altitude;pressure_sealevel;temperature;humidity
21361;BME280;10839;43.206;23.550;2022-10-17T00:00:12;98565.50;;;10.78;73.95
21361;BME280;10839;43.206;23.550;2022-10-17T00:02:38;98572.91;;;10.84;73.63
21361;BME280;10839;43.206;23.550;2022-10-17T00:05:04;98563.31;;;10.81;74.06
21361;BME280;10839;43.206;23.550;2022-10-17T00:07:31;98570.09;;;11.01;72.88
21361;BME280;10839;43.206;23.550;2022-10-17T00:09:57;98574.31;;;10.96;73.17
21361;BME280;10839;43.206;23.550;2022-10-17T00:12:23;98572.91;;;10.84;73.38
21361;BME280;10839;43.206;23.550;2022-10-17T00:14:49;98565.53;;;10.94;72.96
21361;BME280;10839;43.206;23.550;2022-10-17T00:17:14;98572.53;;;10.79;73.39
21361;BME280;10839;43.206;23.550;2022-10-17T00:19:41;98569.50;;;10.74;74.00
21361;BME280;10839;43.206;23.550;2022-10-17T00:22:07;98570.25;;;10.92;73.10
21361;BME280;10839;43.206;23.550;2022-10-17T00:24:33;98569.38;;;10.91;73.00
21361;BME280;10839;43.206;23.550;2022-10-17T00:27:00;98578.72;;;11.05;72.36
21361;BME280;10839;43.206;23.550;2022-10-17T00:29:26;98576.31;;;10.94;72.46
21361;BME280;10839;43.206;23.550;2022-10-17T00:31:55;98578.00;;;10.95;72.35
21361;BME280;10839;43.206;23.550;2022-10-17T00:34:22;98571.28;;;10.99;72.48
21361;BME280;10839;43.206;23.550;2022-10-17T00:36:50;98577.59;;;10.82;73.19
21361;BME280;10839;43.206;23.550;2022-10-17T00:39:17;98573.94;;;10.83;73.25
21361;BME280;10839;43.206;23.550;2022-10-17T00:41:42;98576.25;;;10.78;73.62
21361;BME280;10839;43.206;23.550;2022-10-17T00:46:58;98588.84;;;10.69;74.02
21361;BME280;10839;43.206;23.550;2022-10-17T00:49:27;98589.97;;;10.67;73.96
21361;BME280;10839;43.206;23.550;2022-10-17T00:52:05;98583.31;;;10.79;73.42
21361;BME280;10839;43.206;23.550;2022-10-17T00:54:36;98587.03;;;10.78;73.42
21361;BME280;10839;43.206;23.550;2022-10-17T00:57:05;98581.69;;;10.94;72.85
21361;BME280;10839;43.206;23.550;2022-10-17T00:59:37;98585.84;;;10.80;73.35
21361;BME280;10839;43.206;23.550;2022-10-17T01:02:16;98579.31;;;10.83;73.05
21361;BME280;10839;43.206;23.550;2022-10-17T01:04:45;98584.75;;;10.99;72.87
21361;BME280;10839;43.206;23.550;2022-10-17T01:07:12;98585.78;;;10.98;72.38
21361;BME280;10839;43.206;23.550;2022-10-17T01:09:40;98579.25;;;10.75;73.57
21361;BME280;10839;43.206;23.550;2022-10-17T01:12:25;98586.69;;;10.81;73.60
21361;BME280;10839;43.206;23.550;2022-10-17T01:15:08;98586.56;;;10.90;73.36
21361;BME280;10839;43.206;23.550;2022-10-17T01:17:51;98577.22;;;10.69;74.13
21361;BME280;10839;43.206;23.550;2022-10-17T01:23:25;98585.66;;;10.74;74.14
21361;BME280;10839;43.206;23.550;2022-10-17T01:26:35;98582.66;;;10.85;73.36
21361;BME280;10839;43.206;23.550;2022-10-17T01:31:45;98580.19;;;10.58;75.25
21361;BME280;10839;43.206;23.550;2022-10-17T01:37:12;98579.47;;;10.48;76.28
21361;BME280;10839;43.206;23.550;2022-10-17T01:39:52;98574.47;;;10.35;76.60
21361;BME280;10839;43.206;23.550;2022-10-17T01:42:25;98575.00;;;10.39;76.01
21361;BME280;10839;43.206;23.550;2022-10-17T01:45:19;98570.38;;;10.49;75.27
21361;BME280;10839;43.206;23.550;2022-10-17T01:47:46;98575.75;;;10.49;75.12
21361;BME280;10839;43.206;23.550;2022-10-17T01:50:22;98569.00;;;10.45;75.34
21361;BME280;10839;43.206;23.550;2022-10-17T01:53:06;98577.66;;;10.30;76.17
21361;BME280;10839;43.206;23.550;2022-10-17T01:55:36;98578.66;;;10.29;75.91
21361;BME280;10839;43.206;23.550;2022-10-17T01:58:11;98581.81;;;10.25;76.23
21361;BME280;10839;43.206;23.550;2022-10-17T02:00:41;98580.63;;;10.19;76.29
21361;BME280;10839;43.206;23.550;2022-10-17T02:03:13;98587.53;;;10.04;77.38
21361;BME280;10839;43.206;23.550;2022-10-17T02:05:43;98583.88;;;9.70;79.36
21361;BME280;10839;43.206;23.550;2022-10-17T02:08:10;98590.78;;;9.55;81.10
21361;BME280;10839;43.206;23.550;2022-10-17T02:21:58;98606.75;;;9.39;82.71
21361;BME280;10839;43.206;23.550;2022-10-17T02:27:04;98613.31;;;9.27;83.29
21361;BME280;10839;43.206;23.550;2022-10-17T02:29:37;98611.03;;;9.32;83.11
21361;BME280;10839;43.206;23.550;2022-10-17T02:32:13;98613.00;;;9.30;83.23
21361;BME280;10839;43.206;23.550;2022-10-17T02:34:48;98614.00;;;9.29;83.63
21361;BME280;10839;43.206;23.550;2022-10-17T02:37:18;98618.19;;;9.41;82.67
21361;BME280;10839;43.206;23.550;2022-10-17T02:39:50;98618.50;;;9.56;82.16
21361;BME280;10839;43.206;23.550;2022-10-17T02:42:18;98614.50;;;9.42;82.31
21361;BME280;10839;43.206;23.550;2022-10-17T02:44:48;98617.66;;;9.55;81.93
21361;BME280;10839;43.206;23.550;2022-10-17T02:47:22;98623.16;;;9.36;82.98
21361;BME280;10839;43.206;23.550;2022-10-17T02:49:52;98623.16;;;9.36;82.66
21361;BME280;10839;43.206;23.550;2022-10-17T02:52:35;98632.41;;;9.24;83.58
21361;BME280;10839;43.206;23.550;2022-10-17T02:57:43;98630.84;;;9.49;82.45
21361;BME280;10839;43.206;23.550;2022-10-17T03:00:12;98637.81;;;9.42;82.59
21361;BME280;10839;43.206;23.550;2022-10-17T03:02:44;98637.09;;;9.22;83.57
21361;BME280;10839;43.206;23.550;2022-10-17T03:05:13;98647.84;;;9.22;83.69
21361;BME280;10839;43.206;23.550;2022-10-17T03:07:39;98635.91;;;9.34;83.27
21361;BME280;10839;43.206;23.550;2022-10-17T03:10:06;98639.28;;;9.36;83.44
21361;BME280;10839;43.206;23.550;2022-10-17T03:12:31;98636.75;;;9.35;83.03
21361;BME280;10839;43.206;23.550;2022-10-17T03:14:57;98636.75;;;9.35;83.33
21361;BME280;10839;43.206;23.550;2022-10-17T03:17:23;98637.56;;;9.35;82.92
21361;BME280;10839;43.206;23.550;2022-10-17T03:19:49;98636.13;;;9.41;82.80
21361;BME280;10839;43.206;23.550;2022-10-17T03:22:15;98627.81;;;9.61;81.46
21361;BME280;10839;43.206;23.550;2022-10-17T03:24:44;98620.56;;;9.44;81.28
21361;BME280;10839;43.206;23.550;2022-10-17T03:27:10;98637.56;;;9.35;82.50
21361;BME280;10839;43.206;23.550;2022-10-17T03:29:36;98646.09;;;9.48;82.27
21361;BME280;10839;43.206;23.550;2022-10-17T03:32:04;98644.34;;;9.39;82.21
21361;BME280;10839;43.206;23.550;2022-10-17T03:34:30;98642.94;;;9.35;82.37
21361;BME280;10839;43.206;23.550;2022-10-17T03:36:56;98642.38;;;9.41;82.08
21361;BME280;10839;43.206;23.550;2022-10-17T03:39:23;98640.47;;;9.51;81.09
21361;BME280;10839;43.206;23.550;2022-10-17T03:41:51;98635.47;;;9.56;80.90
21361;BME280;10839;43.206;23.550;2022-10-17T03:44:17;98636.63;;;9.71;79.78
21361;BME280;10839;43.206;23.550;2022-10-17T03:46:43;98631.34;;;9.79;79.80
21361;BME280;10839;43.206;23.550;2022-10-17T03:49:09;98642.41;;;9.76;79.41
21361;BME280;10839;43.206;23.550;2022-10-17T03:51:35;98638.63;;;9.69;79.53
21361;BME280;10839;43.206;23.550;2022-10-17T03:54:06;98643.00;;;9.70;80.30
21361;BME280;10839;43.206;23.550;2022-10-17T03:56:32;98642.09;;;9.79;79.28
21361;BME280;10839;43.206;23.550;2022-10-17T03:59:02;98635.63;;;9.72;79.06
21361;BME280;10839;43.206;23.550;2022-10-17T04:01:31;98642.47;;;10.02;77.76
21361;BME280;10839;43.206;23.550;2022-10-17T04:03:58;98640.41;;;10.13;76.13
21361;BME280;10839;43.206;23.550;2022-10-17T04:06:29;98641.91;;;10.33;75.30
21361;BME280;10839;43.206;23.550;2022-10-17T04:08:55;98643.41;;;10.28;75.11
21361;BME280;10839;43.206;23.550;2022-10-17T04:11:25;98641.06;;;10.33;74.85
21361;BME280;10839;43.206;23.550;2022-10-17T04:13:57;98649.06;;;10.43;75.23
21361;BME280;10839;43.206;23.550;2022-10-17T04:16:27;98657.06;;;9.99;76.70
21361;BME280;10839;43.206;23.550;2022-10-17T04:19:04;98652.56;;;10.17;76.52
21361;BME280;10839;43.206;23.550;2022-10-17T04:21:38;98664.06;;;9.92;78.34
21361;BME280;10839;43.206;23.550;2022-10-17T04:24:10;98660.44;;;10.01;76.90
21361;BME280;10839;43.206;23.550;2022-10-17T04:26:42;98655.19;;;10.09;75.15
21361;BME280;10839;43.206;23.550;2022-10-17T04:29:09;98660.75;;;10.33;74.20
21361;BME280;10839;43.206;23.550;2022-10-17T04:31:36;98666.38;;;10.22;75.04
21361;BME280;10839;43.206;23.550;2022-10-17T04:34:14;98668.38;;;10.03;76.32
21361;BME280;10839;43.206;23.550;2022-10-17T04:36:40;98665.00;;;10.18;75.19
21361;BME280;10839;43.206;23.550;2022-10-17T04:39:07;98671.06;;;10.20;75.79
21361;BME280;10839;43.206;23.550;2022-10-17T04:41:34;98682.09;;;9.82;78.36
21361;BME280;10839;43.206;23.550;2022-10-17T04:44:01;98675.94;;;9.72;78.29
21361;BME280;10839;43.206;23.550;2022-10-17T04:46:29;98679.88;;;9.95;75.72
21361;BME280;10839;43.206;23.550;2022-10-17T04:48:55;98685.69;;;9.73;78.17
21361;BME280;10839;43.206;23.550;2022-10-17T04:51:21;98684.47;;;9.85;77.57
21361;BME280;10839;43.206;23.550;2022-10-17T04:54:08;98685.41;;;9.94;76.95
21361;BME280;10839;43.206;23.550;2022-10-17T04:56:37;98690.53;;;10.05;77.12
21361;BME280;10839;43.206;23.550;2022-10-17T04:59:02;98696.28;;;11.14;72.03
21361;BME280;10839;43.206;23.550;2022-10-17T05:01:30;98691.06;;;12.20;65.67
21361;BME280;10839;43.206;23.550;2022-10-17T05:03:56;98700.34;;;13.06;62.47
21361;BME280;10839;43.206;23.550;2022-10-17T05:06:24;98697.88;;;14.04;58.87
21361;BME280;10839;43.206;23.550;2022-10-17T05:09:11;98706.69;;;15.25;54.25
21361;BME280;10839;43.206;23.550;2022-10-17T05:11:38;98719.97;;;15.79;53.29
21361;BME280;10839;43.206;23.550;2022-10-17T05:14:04;98713.38;;;16.17;51.12
21361;BME280;10839;43.206;23.550;2022-10-17T05:16:31;98709.16;;;16.50;49.49
21361;BME280;10839;43.206;23.550;2022-10-17T05:18:58;98710.56;;;16.67;50.01
21361;BME280;10839;43.206;23.550;2022-10-17T05:21:30;98716.31;;;18.82;44.77
21361;BME280;10839;43.206;23.550;2022-10-17T05:23:57;98710.91;;;17.06;46.43
21361;BME280;10839;43.206;23.550;2022-10-17T05:26:23;98717.16;;;19.15;44.16
21361;BME280;10839;43.206;23.550;2022-10-17T05:28:50;98722.56;;;17.90;44.49
21361;BME280;10839;43.206;23.550;2022-10-17T05:31:19;98726.66;;;18.13;43.04
21361;BME280;10839;43.206;23.550;2022-10-17T05:33:45;98718.88;;;19.03;41.46
21361;BME280;10839;43.206;23.550;2022-10-17T05:36:12;98731.03;;;18.87;40.91
21361;BME280;10839;43.206;23.550;2022-10-17T05:38:39;98728.94;;;18.89;40.39
21361;BME280;10839;43.206;23.550;2022-10-17T05:41:06;98736.44;;;19.72;39.02
21361;BME280;10839;43.206;23.550;2022-10-17T05:43:33;98727.66;;;19.18;39.39
21361;BME280;10839;43.206;23.550;2022-10-17T05:46:03;98729.34;;;19.45;38.91
21361;BME280;10839;43.206;23.550;2022-10-17T05:48:31;98743.94;;;19.96;38.29
21361;BME280;10839;43.206;23.550;2022-10-17T05:51:04;98741.88;;;21.36;35.94
21361;BME280;10839;43.206;23.550;2022-10-17T05:53:33;98748.34;;;21.17;35.78
21361;BME280;10839;43.206;23.550;2022-10-17T05:56:05;98740.41;;;22.66;35.61
21361;BME280;10839;43.206;23.550;2022-10-17T05:58:33;98758.09;;;22.52;34.41
21361;BME280;10839;43.206;23.550;2022-10-17T06:01:04;98755.94;;;21.64;34.94
21361;BME280;10839;43.206;23.550;2022-10-17T06:03:32;98752.19;;;22.37;33.24
21361;BME280;10839;43.206;23.550;2022-10-17T06:06:09;98755.91;;;23.32;31.69
21361;BME280;10839;43.206;23.550;2022-10-17T06:08:40;98775.75;;;23.80;31.16
21361;BME280;10839;43.206;23.550;2022-10-17T06:11:10;98768.56;;;23.79;31.37
21361;BME280;10839;43.206;23.550;2022-10-17T06:13:38;98774.34;;;24.12;30.35
21361;BME280;10839;43.206;23.550;2022-10-17T06:16:12;98773.84;;;23.16;31.76
21361;BME280;10839;43.206;23.550;2022-10-17T06:18:38;98775.78;;;24.03;30.81
21361;BME280;10839;43.206;23.550;2022-10-17T06:21:09;98787.13;;;24.69;30.01
21361;BME280;10839;43.206;23.550;2022-10-17T06:23:39;98793.22;;;23.97;30.12
21361;BME280;10839;43.206;23.550;2022-10-17T06:26:15;98790.25;;;25.17;28.95
21361;BME280;10839;43.206;23.550;2022-10-17T06:28:42;98792.03;;;24.95;29.82
21361;BME280;10839;43.206;23.550;2022-10-17T06:31:14;98793.75;;;24.96;28.97
21361;BME280;10839;43.206;23.550;2022-10-17T06:33:40;98795.25;;;25.04;29.48
21361;BME280;10839;43.206;23.550;2022-10-17T06:36:11;98795.97;;;25.27;28.68
21361;BME280;10839;43.206;23.550;2022-10-17T06:38:38;98790.84;;;25.48;28.56
21361;BME280;10839;43.206;23.550;2022-10-17T06:41:13;98798.09;;;25.87;27.88
21361;BME280;10839;43.206;23.550;2022-10-17T06:43:41;98792.69;;;26.08;27.71
21361;BME280;10839;43.206;23.550;2022-10-17T06:46:26;98798.81;;;25.99;27.70
21361;BME280;10839;43.206;23.550;2022-10-17T06:49:03;98790.97;;;25.91;27.71
21361;BME280;10839;43.206;23.550;2022-10-17T06:51:47;98800.09;;;26.89;26.68
21361;BME280;10839;43.206;23.550;2022-10-17T06:54:17;98798.00;;;26.15;27.49
21361;BME280;10839;43.206;23.550;2022-10-17T06:57:02;98793.28;;;26.75;26.71
21361;BME280;10839;43.206;23.550;2022-10-17T06:59:46;98798.31;;;27.53;26.15
21361;BME280;10839;43.206;23.550;2022-10-17T07:02:23;98791.44;;;28.34;25.32
21361;BME280;10839;43.206;23.550;2022-10-17T07:04:51;98795.50;;;28.63;24.97
21361;BME280;10839;43.206;23.550;2022-10-17T07:07:17;98788.13;;;28.42;25.72
21361;BME280;10839;43.206;23.550;2022-10-17T07:09:43;98798.28;;;28.68;25.21
21361;BME280;10839;43.206;23.550;2022-10-17T07:12:09;98806.59;;;28.63;26.09
21361;BME280;10839;43.206;23.550;2022-10-17T07:14:41;98795.13;;;29.11;26.23
21361;BME280;10839;43.206;23.550;2022-10-17T07:17:07;98804.63;;;28.68;26.72
21361;BME280;10839;43.206;23.550;2022-10-17T07:19:35;98804.56;;;29.15;26.31
21361;BME280;10839;43.206;23.550;2022-10-17T07:22:01;98807.69;;;28.20;27.36
21361;BME280;10839;43.206;23.550;2022-10-17T07:24:29;98805.03;;;27.35;27.71
21361;BME280;10839;43.206;23.550;2022-10-17T07:27:18;98811.13;;;27.96;27.63
21361;BME280;10839;43.206;23.550;2022-10-17T07:29:45;98802.31;;;27.40;28.21
21361;BME280;10839;43.206;23.550;2022-10-17T07:32:18;98804.28;;;27.77;27.29
21361;BME280;10839;43.206;23.550;2022-10-17T07:34:44;98814.31;;;27.24;28.06
21361;BME280;10839;43.206;23.550;2022-10-17T07:37:10;98814.94;;;27.58;27.76
21361;BME280;10839;43.206;23.550;2022-10-17T07:39:39;98819.72;;;26.88;28.61
21361;BME280;10839;43.206;23.550;2022-10-17T07:42:05;98815.38;;;25.99;29.80
21361;BME280;10839;43.206;23.550;2022-10-17T07:44:33;98816.31;;;27.29;28.35
21361;BME280;10839;43.206;23.550;2022-10-17T07:47:00;98819.31;;;27.27;28.43
21361;BME280;10839;43.206;23.550;2022-10-17T07:49:27;98822.09;;;26.79;29.07
21361;BME280;10839;43.206;23.550;2022-10-17T07:51:53;98825.66;;;26.58;29.74
21361;BME280;10839;43.206;23.550;2022-10-17T07:54:19;98823.53;;;26.65;29.78
21361;BME280;10839;43.206;23.550;2022-10-17T07:56:45;98824.88;;;26.41;30.35
21361;BME280;10839;43.206;23.550;2022-10-17T07:59:17;98821.38;;;26.89;29.57
21361;BME280;10839;43.206;23.550;2022-10-17T08:01:43;98831.88;;;27.61;29.13
21361;BME280;10839;43.206;23.550;2022-10-17T08:04:09;98818.47;;;27.00;29.51
21361;BME280;10839;43.206;23.550;2022-10-17T08:06:34;98826.69;;;27.43;28.72
21361;BME280;10839;43.206;23.550;2022-10-17T08:09:00;98828.59;;;27.70;28.80
21361;BME280;10839;43.206;23.550;2022-10-17T08:11:26;98826.19;;;26.98;29.48
21361;BME280;10839;43.206;23.550;2022-10-17T08:13:52;98815.13;;;26.55;30.19
21361;BME280;10839;43.206;23.550;2022-10-17T08:16:18;98813.03;;;26.24;30.74
21361;BME280;10839;43.206;23.550;2022-10-17T08:18:44;98822.13;;;26.03;30.67
21361;BME280;10839;43.206;23.550;2022-10-17T08:21:11;98817.13;;;26.60;30.31
21361;BME280;10839;43.206;23.550;2022-10-17T08:23:38;98811.47;;;25.95;31.33
21361;BME280;10839;43.206;23.550;2022-10-17T08:26:06;98811.66;;;25.72;31.58
21361;BME280;10839;43.206;23.550;2022-10-17T08:28:37;98819.34;;;26.41;30.96
21361;BME280;10839;43.206;23.550;2022-10-17T08:31:09;98814.50;;;26.10;30.93
21361;BME280;10839;43.206;23.550;2022-10-17T08:33:36;98815.19;;;26.22;30.71
21361;BME280;10839;43.206;23.550;2022-10-17T08:36:04;98816.72;;;26.29;30.30
21361;BME280;10839;43.206;23.550;2022-10-17T08:38:31;98819.09;;;25.88;30.77
21361;BME280;10839;43.206;23.550;2022-10-17T08:41:02;98818.03;;;26.27;30.79
21361;BME280;10839;43.206;23.550;2022-10-17T08:43:54;98811.91;;;27.06;29.88
21361;BME280;10839;43.206;23.550;2022-10-17T08:46:30;98822.97;;;26.63;30.68
21361;BME280;10839;43.206;23.550;2022-10-17T08:48:59;98813.13;;;26.12;30.33
21361;BME280;10839;43.206;23.550;2022-10-17T08:51:33;98819.59;;;26.18;30.23
21361;BME280;10839;43.206;23.550;2022-10-17T08:54:16;98811.56;;;25.67;30.36
21361;BME280;10839;43.206;23.550;2022-10-17T08:56:48;98828.84;;;25.17;31.04
21361;BME280;10839;43.206;23.550;2022-10-17T08:59:29;98823.34;;;25.17;31.07
21361;BME280;10839;43.206;23.550;2022-10-17T09:10:39;98823.72;;;21.75;34.21
21361;BME280;10839;43.206;23.550;2022-10-17T09:21:01;98829.84;;;23.33;32.00
21361;BME280;10839;43.206;23.550;2022-10-17T09:23:44;98840.72;;;21.59;34.30
21361;BME280;10839;43.206;23.550;2022-10-17T09:26:12;98835.69;;;22.41;33.51
21361;BME280;10839;43.206;23.550;2022-10-17T09:28:40;98839.03;;;23.09;32.88
21361;BME280;10839;43.206;23.550;2022-10-17T09:33:46;98834.78;;;23.54;31.40
21361;BME280;10839;43.206;23.550;2022-10-17T09:38:46;98834.13;;;23.82;30.50
21361;BME280;10839;43.206;23.550;2022-10-17T09:41:22;98830.25;;;21.99;33.27
21361;BME280;10839;43.206;23.550;2022-10-17T09:43:55;98823.59;;;21.39;34.04
21361;BME280;10839;43.206;23.550;2022-10-17T09:49:41;98824.94;;;21.30;34.10
21361;BME280;10839;43.206;23.550;2022-10-17T09:52:32;98828.16;;;22.37;33.03
21361;BME280;10839;43.206;23.550;2022-10-17T09:55:04;98825.13;;;22.93;32.48
21361;BME280;10839;43.206;23.550;2022-10-17T10:00:25;98829.66;;;21.72;33.43
21361;BME280;10839;43.206;23.550;2022-10-17T10:03:13;98828.53;;;22.40;33.09
21361;BME280;10839;43.206;23.550;2022-10-17T10:05:40;98840.06;;;21.88;33.32
21361;BME280;10839;43.206;23.550;2022-10-17T10:08:18;98815.69;;;22.59;32.28
21361;BME280;10839;43.206;23.550;2022-10-17T10:10:44;98810.41;;;21.54;33.60
21361;BME280;10839;43.206;23.550;2022-10-17T10:15:46;98811.00;;;22.59;32.46
21361;BME280;10839;43.206;23.550;2022-10-17T10:18:34;98817.78;;;23.46;31.27
21361;BME280;10839;43.206;23.550;2022-10-17T10:21:18;98813.19;;;21.72;33.42
21361;BME280;10839;43.206;23.550;2022-10-17T10:24:05;98806.22;;;22.37;33.02
21361;BME280;10839;43.206;23.550;2022-10-17T10:26:44;98798.44;;;23.41;31.48
21361;BME280;10839;43.206;23.550;2022-10-17T10:29:36;98807.06;;;24.88;29.95
21361;BME280;10839;43.206;23.550;2022-10-17T10:32:09;98805.53;;;23.83;30.34
21361;BME280;10839;43.206;23.550;2022-10-17T10:34:42;98806.50;;;24.12;30.79
21361;BME280;10839;43.206;23.550;2022-10-17T10:37:24;98794.25;;;24.93;29.55
21361;BME280;10839;43.206;23.550;2022-10-17T10:39:55;98798.81;;;24.37;29.87
21361;BME280;10839;43.206;23.550;2022-10-17T10:42:38;98796.88;;;24.49;29.59
21361;BME280;10839;43.206;23.550;2022-10-17T10:45:21;98795.00;;;24.26;30.26
21361;BME280;10839;43.206;23.550;2022-10-17T10:47:59;98791.31;;;24.09;30.38
21361;BME280;10839;43.206;23.550;2022-10-17T10:50:40;98769.19;;;23.58;30.91
21361;BME280;10839;43.206;23.550;2022-10-17T10:56:15;98780.50;;;22.31;32.69
21361;BME280;10839;43.206;23.550;2022-10-17T11:01:43;98775.41;;;23.65;31.15
21361;BME280;10839;43.206;23.550;2022-10-17T11:04:46;98774.13;;;24.02;30.81
21361;BME280;10839;43.206;23.550;2022-10-17T11:12:37;98763.31;;;23.66;31.43
21361;BME280;10839;43.206;23.550;2022-10-17T11:15:17;98768.00;;;24.51;30.49
21361;BME280;10839;43.206;23.550;2022-10-17T11:20:22;98764.03;;;23.50;31.25
21361;BME280;10839;43.206;23.550;2022-10-17T11:22:55;98762.25;;;23.03;31.68
21361;BME280;10839;43.206;23.550;2022-10-17T11:25:33;98759.69;;;23.31;32.98
21361;BME280;10839;43.206;23.550;2022-10-17T11:28:02;98762.50;;;23.65;33.09
21361;BME280;10839;43.206;23.550;2022-10-17T11:30:39;98745.41;;;23.98;32.51
21361;BME280;10839;43.206;23.550;2022-10-17T11:33:09;98740.13;;;23.85;32.56
21361;BME280;10839;43.206;23.550;2022-10-17T11:35:40;98742.03;;;23.96;32.68
21361;BME280;10839;43.206;23.550;2022-10-17T11:38:24;98738.56;;;24.24;32.23
21361;BME280;10839;43.206;23.550;2022-10-17T11:40:56;98740.69;;;24.61;31.83
21361;BME280;10839;43.206;23.550;2022-10-17T11:43:31;98734.59;;;24.20;32.15
21361;BME280;10839;43.206;23.550;2022-10-17T11:46:09;98733.97;;;24.57;31.67
21361;BME280;10839;43.206;23.550;2022-10-17T11:49:05;98729.66;;;24.61;31.83
21361;BME280;10839;43.206;23.550;2022-10-17T11:51:33;98726.47;;;24.13;31.26
21361;BME280;10839;43.206;23.550;2022-10-17T11:54:10;98731.75;;;24.15;31.12
21361;BME280;10839;43.206;23.550;2022-10-17T12:02:05;98724.88;;;22.60;33.51
21361;BME280;10839;43.206;23.550;2022-10-17T12:04:57;98719.84;;;22.99;33.17
21361;BME280;10839;43.206;23.550;2022-10-17T12:12:53;98723.03;;;22.54;33.73
21361;BME280;10839;43.206;23.550;2022-10-17T12:22:50;98710.19;;;23.08;33.39
21361;BME280;10839;43.206;23.550;2022-10-17T12:25:26;98709.66;;;22.88;33.39
21361;BME280;10839;43.206;23.550;2022-10-17T12:28:42;98715.63;;;22.85;33.50
21361;BME280;10839;43.206;23.550;2022-10-17T12:38:49;98703.28;;;22.64;33.88
21361;BME280;10839;43.206;23.550;2022-10-17T12:41:44;98699.19;;;22.55;34.27
21361;BME280;10839;43.206;23.550;2022-10-17T12:46:57;98709.88;;;22.74;34.21
21361;BME280;10839;43.206;23.550;2022-10-17T12:57:51;98695.28;;;22.15;34.89
21361;BME280;10839;43.206;23.550;2022-10-17T13:00:21;98699.41;;;22.06;35.25
21361;BME280;10839;43.206;23.550;2022-10-17T13:02:52;98704.66;;;22.25;34.99
21361;BME280;10839;43.206;23.550;2022-10-17T13:05:29;98699.34;;;22.12;35.53
21361;BME280;10839;43.206;23.550;2022-10-17T13:07:58;98694.16;;;21.86;35.88
21361;BME280;10839;43.206;23.550;2022-10-17T13:10:31;98710.59;;;22.04;35.58
21361;BME280;10839;43.206;23.550;2022-10-17T13:15:32;98705.13;;;21.86;35.40
21361;BME280;10839;43.206;23.550;2022-10-17T13:18:00;98710.44;;;21.99;35.82
21361;BME280;10839;43.206;23.550;2022-10-17T13:20:29;98699.75;;;21.73;35.86
21361;BME280;10839;43.206;23.550;2022-10-17T13:22:55;98708.56;;;21.39;36.58
21361;BME280;10839;43.206;23.550;2022-10-17T13:25:23;98708.28;;;20.91;37.36
21361;BME280;10839;43.206;23.550;2022-10-17T13:27:50;98708.31;;;20.60;38.03
21361;BME280;10839;43.206;23.550;2022-10-17T13:30:34;98710.09;;;21.10;37.03
21361;BME280;10839;43.206;23.550;2022-10-17T13:33:00;98708.56;;;21.14;36.87
21361;BME280;10839;43.206;23.550;2022-10-17T13:35:32;98706.72;;;21.08;37.06
21361;BME280;10839;43.206;23.550;2022-10-17T13:38:04;98709.75;;;21.00;37.47
21361;BME280;10839;43.206;23.550;2022-10-17T13:40:40;98705.28;;;21.06;37.74
21361;BME280;10839;43.206;23.550;2022-10-17T13:43:18;98709.34;;;21.21;37.13
21361;BME280;10839;43.206;23.550;2022-10-17T13:45:57;98703.22;;;21.26;36.92
21361;BME280;10839;43.206;23.550;2022-10-17T13:48:31;98713.94;;;21.27;37.09
21361;BME280;10839;43.206;23.550;2022-10-17T13:51:03;98709.16;;;20.92;38.07
21361;BME280;10839;43.206;23.550;2022-10-17T13:53:35;98710.38;;;20.65;38.50
21361;BME280;10839;43.206;23.550;2022-10-17T13:56:06;98714.38;;;20.69;38.70
21361;BME280;10839;43.206;23.550;2022-10-17T13:58:47;98710.88;;;20.55;37.91
21361;BME280;10839;43.206;23.550;2022-10-17T14:01:14;98714.81;;;20.28;38.40
21361;BME280;10839;43.206;23.550;2022-10-17T14:03:41;98710.03;;;20.55;38.27
21361;BME280;10839;43.206;23.550;2022-10-17T14:08:58;98732.97;;;20.09;38.67
21361;BME280;10839;43.206;23.550;2022-10-17T14:13:59;98727.03;;;19.55;37.61
21361;BME280;10839;43.206;23.550;2022-10-17T14:16:36;98728.50;;;19.38;37.61
21361;BME280;10839;43.206;23.550;2022-10-17T14:19:05;98732.69;;;19.60;39.10
21361;BME280;10839;43.206;23.550;2022-10-17T14:21:31;98735.03;;;19.37;38.32
21361;BME280;10839;43.206;23.550;2022-10-17T14:26:54;98728.06;;;19.28;37.80
21361;BME280;10839;43.206;23.550;2022-10-17T14:29:23;98731.03;;;18.81;37.82
21361;BME280;10839;43.206;23.550;2022-10-17T14:31:57;98720.97;;;18.88;37.77
21361;BME280;10839;43.206;23.550;2022-10-17T14:34:31;98721.78;;;18.95;37.97
21361;BME280;10839;43.206;23.550;2022-10-17T14:36:59;98722.00;;;19.00;37.83
21361;BME280;10839;43.206;23.550;2022-10-17T14:39:26;98721.81;;;19.08;38.87
21361;BME280;10839;43.206;23.550;2022-10-17T14:41:53;98724.94;;;19.18;40.08
21361;BME280;10839;43.206;23.550;2022-10-17T14:44:29;98723.91;;;18.99;41.11
21361;BME280;10839;43.206;23.550;2022-10-17T14:46:59;98726.22;;;18.96;41.10
21361;BME280;10839;43.206;23.550;2022-10-17T14:49:37;98724.06;;;18.59;42.57
21361;BME280;10839;43.206;23.550;2022-10-17T14:52:11;98729.28;;;18.54;42.95
21361;BME280;10839;43.206;23.550;2022-10-17T14:54:37;98731.78;;;18.42;43.76
21361;BME280;10839;43.206;23.550;2022-10-17T14:57:21;98725.88;;;18.39;43.62
21361;BME280;10839;43.206;23.550;2022-10-17T14:59:48;98729.16;;;18.15;44.56
21361;BME280;10839;43.206;23.550;2022-10-17T15:02:14;98734.53;;;18.02;44.65
21361;BME280;10839;43.206;23.550;2022-10-17T15:04:41;98734.91;;;17.92;44.71
21361;BME280;10839;43.206;23.550;2022-10-17T15:07:14;98729.34;;;17.66;45.31
21361;BME280;10839;43.206;23.550;2022-10-17T15:09:42;98731.84;;;17.67;45.25
21361;BME280;10839;43.206;23.550;2022-10-17T15:12:20;98730.50;;;17.50;45.56
21361;BME280;10839;43.206;23.550;2022-10-17T15:14:48;98726.34;;;17.54;45.63